Time;durP1;ratioP1;P1;durP2;ratioP2;P2;SDS_P1;SDS_P2;PMS_P1;PMS_P2;Temp;Humidity;BMP_temperature;BMP_pressure;BME280_temperature;BME280_humidity;BME280_pressure;Samples;Min_cycle;Max_cycle;Signal;HPM_P1;HPM_P2
2020/12/27 00:02:05;;;;;;;21.52;13.05;;;-0.70;83.30;;;;;;5072990;28;20025;-81
2020/12/27 00:04:31;;;;;;;22.42;14.73;;;-0.70;83.10;;;;;;5073505;28;20019;-81
2020/12/27 00:07:01;;;;;;;27.27;16.05;;;-0.80;83.30;;;;;;5073089;28;20398;-81
2020/12/27 00:09:27;;;;;;;30.30;14.80;;;-0.80;83.40;;;;;;5074648;28;20071;-81
2020/12/27 00:11:53;;;;;;;25.35;13.82;;;-0.80;83.40;;;;;;5077147;28;20028;-81
2020/12/27 00:14:18;;;;;;;26.90;15.05;;;-0.80;83.50;;;;;;5077075;28;20094;-81
2020/12/27 00:16:44;;;;;;;29.67;16.60;;;-0.80;83.60;;;;;;5075445;28;20028;-81
2020/12/27 00:19:10;;;;;;;34.47;18.08;;;-0.80;83.60;;;;;;5076759;28;20025;-81
2020/12/27 00:21:35;;;;;;;28.17;15.57;;;-0.80;83.80;;;;;;5076827;28;20021;-81
2020/12/27 00:24:01;;;;;;;23.85;14.20;;;-0.80;83.60;;;;;;5075042;28;20048;-80
2020/12/27 00:26:27;;;;;;;23.20;13.88;;;-0.80;83.50;;;;;;5076877;28;20052;-80
2020/12/27 00:28:52;;;;;;;23.00;12.82;;;-0.90;83.60;;;;;;5075251;28;20027;-80
2020/12/27 00:31:18;;;;;;;22.48;13.10;;;-0.90;83.80;;;;;;5076883;28;20472;-80
2020/12/27 00:33:44;;;;;;;24.48;14.18;;;-0.90;84.00;;;;;;5076799;28;20029;-80
2020/12/27 00:36:10;;;;;;;25.73;14.10;;;-0.90;84.00;;;;;;5075076;28;20036;-80
2020/12/27 00:38:35;;;;;;;27.75;15.25;;;-0.90;84.20;;;;;;5076396;28;20150;-80
2020/12/27 00:41:01;;;;;;;30.25;15.45;;;-1.00;84.10;;;;;;5076193;28;20166;-80
2020/12/27 00:43:27;;;;;;;25.90;15.35;;;-0.90;84.20;;;;;;5076225;28;20507;-80
2020/12/27 00:45:53;;;;;;;28.77;16.48;;;-1.00;84.10;;;;;;5076503;28;20030;-79
2020/12/27 00:48:18;;;;;;;27.40;15.40;;;-1.00;84.10;;;;;;5074936;28;20027;-79
2020/12/27 00:50:48;;;;;;;25.30;14.50;;;-1.00;84.10;;;;;;5074819;28;20382;-79
2020/12/27 00:53:14;;;;;;;25.17;15.45;;;-1.00;84.00;;;;;;5076194;28;20020;-79
2020/12/27 00:55:42;;;;;;;27.55;16.63;;;-1.00;84.30;;;;;;5076274;28;20083;-79
2020/12/27 00:58:08;;;;;;;26.52;16.52;;;-1.00;84.40;;;;;;5076056;28;20083;-80
2020/12/27 01:00:33;;;;;;;29.30;15.80;;;-1.00;84.80;;;;;;5075991;28;20028;-80
2020/12/27 01:02:59;;;;;;;26.60;15.93;;;-1.10;84.50;;;;;;5075843;28;20099;-80
2020/12/27 01:05:25;;;;;;;25.15;15.48;;;-1.10;84.60;;;;;;5075870;28;20414;-79
2020/12/27 01:07:50;;;;;;;29.98;15.20;;;-1.10;84.80;;;;;;5074407;28;20024;-79
2020/12/27 01:10:16;;;;;;;38.42;19.70;;;-1.10;84.50;;;;;;5074475;28;20028;-80
2020/12/27 01:12:44;;;;;;;42.60;20.88;;;-1.10;85.00;;;;;;5075626;28;20064;-80
2020/12/27 01:15:11;;;;;;;41.10;19.17;;;-1.10;84.90;;;;;;5075543;28;20020;-79
2020/12/27 01:17:37;;;;;;;37.53;17.85;;;-1.20;84.50;;;;;;5074305;28;20044;-79
2020/12/27 01:20:04;;;;;;;29.42;14.38;;;-1.10;84.50;;;;;;5074217;28;20494;-79
2020/12/27 01:22:34;;;;;;;24.52;13.60;;;-1.10;84.40;;;;;;5074016;28;20048;-79
2020/12/27 01:25:00;;;;;;;23.17;13.73;;;-1.20;84.40;;;;;;5075465;28;20348;-80
2020/12/27 01:27:26;;;;;;;33.80;16.73;;;-1.10;84.30;;;;;;5074015;28;20513;-80
2020/12/27 01:29:52;;;;;;;28.25;16.00;;;-1.20;84.70;;;;;;5075165;28;20021;-79
2020/12/27 01:32:18;;;;;;;34.25;17.05;;;-1.20;84.50;;;;;;5075273;28;20052;-80
2020/12/27 01:34:44;;;;;;;32.95;17.70;;;-1.20;84.50;;;;;;5075339;28;20031;-80
2020/12/27 01:37:10;;;;;;;29.67;16.65;;;-1.20;84.30;;;;;;5073978;28;20135;-79
2020/12/27 01:39:36;;;;;;;35.50;19.05;;;-1.20;84.20;;;;;;5073988;28;20478;-80
2020/12/27 01:42:01;;;;;;;33.55;17.60;;;-1.20;84.30;;;;;;5074804;28;20429;-80
2020/12/27 01:44:27;;;;;;;32.33;16.95;;;-1.20;84.30;;;;;;5075411;28;20481;-80
2020/12/27 01:46:53;;;;;;;29.52;16.33;;;-1.20;84.40;;;;;;5075456;28;20433;-80
2020/12/27 01:49:19;;;;;;;29.98;16.92;;;-1.20;84.40;;;;;;5074996;28;20496;-80
2020/12/27 01:51:45;;;;;;;31.55;15.82;;;-1.30;84.40;;;;;;5075152;28;20020;-79
2020/12/27 01:54:11;;;;;;;22.88;14.77;;;-1.30;84.30;;;;;;5073960;28;20020;-79
2020/12/27 01:56:44;;;;;;;24.92;14.40;;;-1.30;84.30;;;;;;5074918;28;20016;-79
2020/12/27 01:59:28;;;;;;;23.35;13.30;;;-1.30;84.20;;;;;;5075155;28;20023;-79
2020/12/27 02:01:53;;;;;;;21.58;13.20;;;-1.30;84.10;;;;;;5074714;28;20382;-80
2020/12/27 02:04:20;;;;;;;19.85;12.93;;;-1.30;84.20;;;;;;5074792;28;20028;-80
2020/12/27 02:06:45;;;;;;;19.85;12.40;;;-1.30;84.20;;;;;;5074727;28;20032;-80
2020/12/27 02:09:12;;;;;;;24.23;13.93;;;-1.30;84.30;;;;;;5074557;28;20016;-81
2020/12/27 02:11:38;;;;;;;20.75;12.70;;;-1.30;84.20;;;;;;5088630;28;20374;-81
2020/12/27 02:14:04;;;;;;;21.88;12.75;;;-1.40;84.10;;;;;;5094856;28;20012;-81
2020/12/27 02:16:31;;;;;;;22.60;11.90;;;-1.40;84.30;;;;;;5094774;28;20020;-81
2020/12/27 02:19:02;;;;;;;26.88;14.45;;;-1.40;84.10;;;;;;5095049;28;20020;-81
2020/12/27 02:21:29;;;;;;;32.28;15.20;;;-1.40;84.10;;;;;;5094861;28;20020;-81
2020/12/27 02:23:59;;;;;;;31.17;16.15;;;-1.40;84.30;;;;;;5093169;28;20102;-81
2020/12/27 02:26:26;;;;;;;25.90;13.77;;;-1.40;84.50;;;;;;5094616;28;20417;-82
2020/12/27 02:28:53;;;;;;;23.67;12.00;;;-1.50;84.50;;;;;;5094549;28;20035;-82
2020/12/27 02:31:23;;;;;;;18.95;11.15;;;-1.50;84.50;;;;;;5093446;28;20107;-82
2020/12/27 02:33:50;;;;;;;22.55;11.98;;;-1.50;84.40;;;;;;5093402;28;20028;-82
2020/12/27 02:36:16;;;;;;;24.90;13.82;;;-1.50;84.60;;;;;;5094230;28;20036;-82
2020/12/27 02:38:41;;;;;;;23.25;13.07;;;-1.50;84.50;;;;;;5094126;28;20035;-82
2020/12/27 02:41:20;;;;;;;21.95;11.80;;;-1.50;84.40;;;;;;5093047;28;20028;-82
2020/12/27 02:43:46;;;;;;;20.45;11.45;;;-1.50;84.40;;;;;;5092824;28;20028;-83
2020/12/27 02:46:29;;;;;;;19.50;11.80;;;-1.50;84.30;;;;;;5094134;28;20484;-82
2020/12/27 02:48:56;;;;;;;22.40;12.27;;;-1.50;84.30;;;;;;5094231;28;20049;-83
2020/12/27 02:51:22;;;;;;;21.90;12.25;;;-1.60;84.20;;;;;;5088087;28;20044;-83
2020/12/27 02:53:48;;;;;;;23.90;13.75;;;-1.60;84.10;;;;;;5074083;28;20024;-83
2020/12/27 02:56:18;;;;;;;25.35;14.45;;;-1.60;84.20;;;;;;5072567;28;20390;-83
2020/12/27 02:58:45;;;;;;;30.83;16.85;;;-1.60;84.20;;;;;;5072725;28;20036;-83
2020/12/27 03:01:11;;;;;;;34.28;17.08;;;-1.60;84.20;;;;;;5072399;28;20113;-83
2020/12/27 03:03:38;;;;;;;27.85;15.02;;;-1.60;84.20;;;;;;5073490;28;20459;-83
2020/12/27 03:06:04;;;;;;;28.17;14.23;;;-1.60;84.40;;;;;;5072537;28;20021;-83
2020/12/27 03:08:29;;;;;;;26.25;12.95;;;-1.60;84.30;;;;;;5073927;28;20031;-83
2020/12/27 03:10:55;;;;;;;21.75;12.00;;;-1.60;84.30;;;;;;5073617;28;20035;-83
2020/12/27 03:13:21;;;;;;;22.55;12.40;;;-1.60;84.20;;;;;;5073993;28;20424;-83
2020/12/27 03:15:47;;;;;;;23.92;13.02;;;-1.70;84.00;;;;;;5073921;28;20497;-83
2020/12/27 03:18:12;;;;;;;21.45;12.05;;;-1.70;84.00;;;;;;5072068;28;20131;-83
2020/12/27 03:20:38;;;;;;;23.33;12.13;;;-1.70;84.60;;;;;;5072306;28;20033;-83
2020/12/27 03:23:04;;;;;;;21.75;11.48;;;-1.70;84.10;;;;;;5073400;28;20449;-83
2020/12/27 03:25:30;;;;;;;19.10;12.07;;;-1.70;84.00;;;;;;5072299;28;20421;-83
2020/12/27 03:27:56;;;;;;;18.75;11.07;;;-1.70;84.10;;;;;;5072347;28;20115;-83
2020/12/27 03:30:22;;;;;;;20.08;12.27;;;-1.70;84.00;;;;;;5071960;28;20067;-84
2020/12/27 03:32:47;;;;;;;24.38;13.75;;;-1.70;84.10;;;;;;5072320;28;20032;-84
2020/12/27 03:35:13;;;;;;;21.02;13.00;;;-1.70;84.10;;;;;;5073551;28;20090;-84
2020/12/27 03:37:39;;;;;;;24.83;14.25;;;-1.80;84.10;;;;;;5072237;28;20021;-84
2020/12/27 03:40:05;;;;;;;35.28;18.13;;;-1.80;84.00;;;;;;5073842;28;20021;-84
2020/12/27 03:42:31;;;;;;;47.00;22.33;;;-1.80;84.00;;;;;;5071985;28;20077;-84
2020/12/27 03:44:58;;;;;;;57.28;26.30;;;-1.90;84.10;;;;;;5074895;28;20168;-84
2020/12/27 03:47:23;;;;;;;46.63;21.58;;;-1.80;84.20;;;;;;5076447;28;20024;-84
2020/12/27 03:49:50;;;;;;;37.75;18.70;;;-1.80;84.20;;;;;;5076034;28;20025;-84
2020/12/27 03:52:16;;;;;;;32.80;16.30;;;-1.80;84.30;;;;;;5076213;28;20059;-84
2020/12/27 03:54:42;;;;;;;27.02;15.50;;;-1.80;84.20;;;;;;5076157;28;20029;-85
2020/12/27 03:57:08;;;;;;;36.05;17.17;;;-1.90;84.30;;;;;;5075434;28;20040;-84
2020/12/27 03:59:34;;;;;;;36.20;17.25;;;-1.90;84.20;;;;;;5076828;28;20029;-85
2020/12/27 04:01:59;;;;;;;38.60;19.13;;;-1.90;84.20;;;;;;5075988;28;20078;-85
2020/12/27 04:04:25;;;;;;;40.05;18.60;;;-1.90;84.20;;;;;;5077093;28;20021;-84
2020/12/27 04:06:51;;;;;;;39.30;19.23;;;-1.90;84.20;;;;;;5076085;28;20112;-85
2020/12/27 04:09:16;;;;;;;34.38;17.17;;;-1.80;84.10;;;;;;5077187;28;20021;-85
2020/12/27 04:11:42;;;;;;;33.13;16.42;;;-1.80;84.00;;;;;;5075564;28;20028;-85
2020/12/27 04:14:08;;;;;;;34.42;17.52;;;-1.80;84.00;;;;;;5075792;28;20086;-85
2020/12/27 04:16:34;;;;;;;35.42;17.90;;;-1.90;84.00;;;;;;5075871;28;20352;-85
2020/12/27 04:18:59;;;;;;;31.55;17.75;;;-1.80;84.00;;;;;;5075859;28;20063;-85
2020/12/27 04:21:25;;;;;;;40.58;21.77;;;-1.80;83.90;;;;;;5075781;28;20060;-85
2020/12/27 04:23:51;;;;;;;44.17;23.95;;;-1.80;83.80;;;;;;5077370;28;20483;-85
2020/12/27 04:26:17;;;;;;;40.83;24.48;;;-1.80;83.80;;;;;;5095941;28;20474;-86
2020/12/27 04:28:43;;;;;;;49.08;26.35;;;-1.80;83.70;;;;;;5096012;28;20055;-85
2020/12/27 04:31:13;;;;;;;52.88;29.90;;;-1.80;83.70;;;;;;5095770;28;20020;-85
2020/12/27 04:33:40;;;;;;;55.35;29.85;;;-1.80;83.60;;;;;;5095690;28;20038;-85
2020/12/27 04:36:06;;;;;;;60.55;31.10;;;-1.80;83.60;;;;;;5095651;28;20085;-85
2020/12/27 04:38:32;;;;;;;52.20;30.10;;;-1.80;83.70;;;;;;5095687;28;20024;-85
2020/12/27 04:41:03;;;;;;;53.42;30.48;;;-1.80;83.60;;;;;;5095619;28;20035;-85
2020/12/27 04:43:29;;;;;;;47.95;28.75;;;-1.90;83.50;;;;;;5096865;28;20024;-85
2020/12/27 04:46:02;;;;;;;52.60;28.60;;;-1.90;83.60;;;;;;5095528;28;20385;-86
2020/12/27 04:48:29;;;;;;;47.63;26.95;;;-2.00;83.60;;;;;;5096858;28;20074;-86
2020/12/27 04:50:55;;;;;;;46.50;26.60;;;-2.00;83.80;;;;;;5096579;28;20378;-85
2020/12/27 04:53:21;;;;;;;41.72;22.58;;;-2.10;83.90;;;;;;5095542;28;20735;-85
2020/12/27 04:55:53;;;;;;;46.80;23.90;;;-2.10;83.90;;;;;;5096307;28;20088;-86
2020/12/27 04:58:22;;;;;;;41.20;22.75;;;-2.10;84.20;;;;;;5096516;28;20055;-85
2020/12/27 05:00:51;;;;;;;46.00;24.70;;;-2.10;84.10;;;;;;5092990;28;20351;-85
2020/12/27 05:03:16;;;;;;;47.60;24.05;;;-2.10;84.00;;;;;;5074979;28;20364;-86
2020/12/27 05:05:42;;;;;;;41.25;22.10;;;-2.20;84.20;;;;;;5076281;28;20036;-85
2020/12/27 05:08:08;;;;;;;40.22;21.83;;;-2.20;84.30;;;;;;5088098;28;20095;-86
2020/12/27 05:10:44;;;;;;;36.30;19.60;;;-2.20;84.30;;;;;;5095122;28;20447;-85
2020/12/27 05:13:11;;;;;;;37.90;20.92;;;-2.20;84.30;;;;;;5096294;28;20026;-85
2020/12/27 05:15:38;;;;;;;24.45;14.73;;;-2.30;84.20;;;;;;5096222;28;20031;-85
2020/12/27 05:18:05;;;;;;;24.35;13.18;;;-2.30;84.20;;;;;;5096030;28;20104;-86
2020/12/27 05:20:35;;;;;;;22.42;13.50;;;-2.30;84.30;;;;;;5096039;28;20449;-85
2020/12/27 05:23:03;;;;;;;19.83;12.32;;;-2.30;84.50;;;;;;5095807;28;20086;-86
2020/12/27 05:25:30;;;;;;;20.40;12.35;;;-2.40;84.20;;;;;;5095858;28;20032;-86
2020/12/27 05:28:10;;;;;;;15.93;11.18;;;-2.40;84.00;;;;;;5094875;28;20389;-86
2020/12/27 05:30:37;;;;;;;16.85;11.23;;;-2.40;83.80;;;;;;5094904;28;20020;-86
2020/12/27 05:33:16;;;;;;;17.38;11.85;;;-2.40;83.70;;;;;;5094873;28;20028;-86
2020/12/27 05:35:42;;;;;;;20.98;12.70;;;-2.40;83.70;;;;;;5094811;28;20039;-86
2020/12/27 05:38:10;;;;;;;31.33;15.10;;;-2.50;83.70;;;;;;5094801;28;20386;-88
2020/12/27 05:40:41;;;;;;;28.10;15.65;;;-2.50;83.90;;;;;;5094482;28;20028;-82
2020/12/27 05:43:14;;;;;;;27.80;14.70;;;-2.50;84.10;;;;;;5094109;28;20482;-78
2020/12/27 05:45:41;;;;;;;29.08;16.63;;;-2.50;84.00;;;;;;5095383;28;20154;-79
2020/12/27 05:48:07;;;;;;;32.53;16.83;;;-2.60;84.40;;;;;;5095183;28;20145;-79
2020/12/27 05:50:40;;;;;;;35.00;19.00;;;-2.60;84.70;;;;;;5094138;28;20424;-79
2020/12/27 05:53:24;;;;;;;39.17;20.25;;;-2.70;84.30;;;;;;5095269;28;20027;-79
2020/12/27 05:55:51;;;;;;;34.00;18.25;;;-2.70;84.40;;;;;;5095484;28;20020;-79
2020/12/27 05:58:19;;;;;;;26.50;15.85;;;-2.70;84.50;;;;;;5095227;28;20020;-79
2020/12/27 06:00:53;;;;;;;36.67;19.90;;;-2.70;84.40;;;;;;5095074;28;20489;-79
2020/12/27 06:03:24;;;;;;;32.72;18.67;;;-2.70;84.50;;;;;;5095242;28;20103;-79
2020/12/27 06:05:58;;;;;;;33.90;19.02;;;-2.80;84.50;;;;;;5095091;28;20020;-79
2020/12/27 06:08:30;;;;;;;29.58;17.83;;;-2.80;85.20;;;;;;5093275;28;20020;-79
2020/12/27 06:11:23;;;;;;;30.25;17.73;;;-2.80;84.50;;;;;;5093563;28;20024;-79
2020/12/27 06:13:49;;;;;;;26.05;17.33;;;-2.80;84.80;;;;;;5066485;28;20107;-79
2020/12/27 06:16:23;;;;;;;28.27;16.23;;;-2.80;84.70;;;;;;5094790;28;20099;-79
2020/12/27 06:19:18;;;;;;;28.70;16.75;;;-2.80;84.60;;;;;;5094663;28;20024;-79
2020/12/27 06:22:00;;;;;;;28.40;16.33;;;-2.70;84.70;;;;;;5094641;28;20093;-78
2020/12/27 06:24:30;;;;;;;33.45;18.60;;;-2.70;84.90;;;;;;5094886;28;20028;-79
2020/12/27 06:27:00;;;;;;;35.78;19.55;;;-2.70;85.00;;;;;;5094569;28;20116;-79
2020/12/27 06:29:41;;;;;;;33.28;18.75;;;-2.70;85.00;;;;;;5094815;28;20032;-79
2020/12/27 06:32:09;;;;;;;39.63;22.23;;;-2.70;85.10;;;;;;5093467;28;20427;-79
2020/12/27 06:34:35;;;;;;;34.88;20.70;;;-2.70;85.30;;;;;;5094678;28;20020;-79
2020/12/27 06:37:06;;;;;;;40.95;23.42;;;-2.60;85.40;;;;;;5094350;28;20073;-79
2020/12/27 06:39:32;;;;;;;38.67;22.30;;;-2.60;85.40;;;;;;5094271;28;20024;-78
2020/12/27 06:42:08;;;;;;;40.40;23.02;;;-2.50;85.80;;;;;;5094201;28;20016;-79
2020/12/27 06:44:45;;;;;;;57.67;29.48;;;-2.50;85.60;;;;;;5094158;28;20024;-78
2020/12/27 06:47:12;;;;;;;56.72;29.58;;;-2.40;85.70;;;;;;5094054;28;20016;-78
2020/12/27 06:49:39;;;;;;;49.33;27.83;;;-2.30;85.60;;;;;;5094191;28;20016;-78
2020/12/27 06:52:25;;;;;;;54.22;28.95;;;-2.30;85.40;;;;;;5094199;28;20024;-78
2020/12/27 06:54:54;;;;;;;51.08;27.08;;;-2.20;85.30;;;;;;5093657;28;20078;-79
2020/12/27 06:57:45;;;;;;;47.08;25.10;;;-2.10;85.30;;;;;;5092760;28;20111;-78
2020/12/27 07:00:30;;;;;;;46.95;24.52;;;-2.00;85.20;;;;;;5093867;28;20024;-78
2020/12/27 07:03:12;;;;;;;44.25;23.67;;;-1.90;85.10;;;;;;5093693;28;20027;-78
2020/12/27 07:05:39;;;;;;;42.95;22.65;;;-1.80;85.00;;;;;;5081819;28;20055;-78
2020/12/27 07:08:08;;;;;;;41.22;21.58;;;-1.70;84.90;;;;;;5073428;28;20043;-78
2020/12/27 07:10:35;;;;;;;31.75;19.23;;;-1.60;84.80;;;;;;5073621;28;20016;-78
2020/12/27 07:13:05;;;;;;;33.17;19.98;;;-1.50;84.70;;;;;;5072235;28;20036;-78
2020/12/27 07:15:32;;;;;;;25.90;13.63;;;-1.40;84.70;;;;;;5072688;28;20048;-78
2020/12/27 07:18:05;;;;;;;23.45;13.25;;;-1.40;84.60;;;;;;5073589;28;20035;-78
2020/12/27 07:20:32;;;;;;;24.35;13.40;;;-1.20;84.60;;;;;;5073469;28;20028;-78
2020/12/27 07:22:57;;;;;;;19.95;11.38;;;-1.10;84.40;;;;;;5073282;28;20040;-78
2020/12/27 07:25:23;;;;;;;32.97;17.77;;;-1.10;84.20;;;;;;5073815;28;20016;-78
2020/12/27 07:27:50;;;;;;;35.90;18.50;;;-1.00;84.00;;;;;;5073565;28;20027;-78
2020/12/27 07:30:16;;;;;;;36.05;19.70;;;-0.90;83.80;;;;;;5072262;28;20116;-78
2020/12/27 07:32:44;;;;;;;69.97;33.28;;;-0.90;83.90;;;;;;5073800;28;20025;-78
2020/12/27 07:35:10;;;;;;;73.18;33.95;;;-0.80;83.80;;;;;;5073433;28;20103;-78
2020/12/27 07:37:36;;;;;;;75.63;34.05;;;-0.70;83.70;;;;;;5073723;28;20466;-78
2020/12/27 07:40:05;;;;;;;65.70;29.42;;;-0.60;83.40;;;;;;5088849;28;20028;-78
2020/12/27 07:42:32;;;;;;;48.20;22.17;;;-0.60;83.40;;;;;;5073276;28;20371;-78
2020/12/27 07:45:00;;;;;;;37.22;19.17;;;-0.50;83.10;;;;;;5073316;28;20382;-78
2020/12/27 07:47:27;;;;;;;45.85;21.52;;;-0.40;83.10;;;;;;5073184;28;20024;-78
2020/12/27 07:50:05;;;;;;;34.17;18.17;;;-0.40;82.70;;;;;;5073250;28;20027;-78
2020/12/27 07:52:47;;;;;;;29.52;16.30;;;-0.30;82.80;;;;;;5073161;28;20024;-78
2020/12/27 07:55:34;;;;;;;31.80;17.50;;;-0.20;83.00;;;;;;5073315;28;20028;-78
2020/12/27 07:58:05;;;;;;;36.25;19.05;;;-0.20;82.90;;;;;;5071813;28;20029;-78
2020/12/27 08:00:36;;;;;;;34.45;16.92;;;-0.10;82.60;;;;;;5071574;28;20024;-78
2020/12/27 08:03:05;;;;;;;26.35;15.32;;;-0.10;82.40;;;;;;5073106;28;20115;-78
2020/12/27 08:05:31;;;;;;;34.27;17.90;;;-0.10;82.20;;;;;;5073106;28;20021;-78
2020/12/27 08:08:05;;;;;;;28.77;15.68;;;0.00;82.10;;;;;;5071828;28;20027;-77
2020/12/27 08:10:32;;;;;;;26.40;15.25;;;0.00;82.00;;;;;;5073186;28;20016;-78
2020/12/27 08:13:00;;;;;;;28.65;15.82;;;0.10;82.00;;;;;;5082771;28;20028;-77
2020/12/27 08:15:27;;;;;;;32.08;16.20;;;0.20;81.80;;;;;;5093435;28;20036;-78
2020/12/27 08:18:14;;;;;;;28.00;15.55;;;0.20;81.70;;;;;;5090889;28;20031;-77
2020/12/27 08:20:48;;;;;;;22.25;13.75;;;0.30;81.60;;;;;;5091625;28;20107;-78
2020/12/27 08:23:14;;;;;;;31.90;17.25;;;0.30;80.80;;;;;;5092920;28;20127;-78
2020/12/27 08:25:41;;;;;;;26.10;14.07;;;0.40;80.10;;;;;;5093092;28;20024;-77
2020/12/27 08:28:16;;;;;;;25.45;14.00;;;0.40;80.10;;;;;;5093137;28;20095;-78
2020/12/27 08:30:44;;;;;;;25.73;14.05;;;0.50;79.40;;;;;;5090699;28;20066;-77
2020/12/27 08:33:12;;;;;;;28.13;14.88;;;0.50;79.90;;;;;;5076159;28;20024;-78
2020/12/27 08:35:41;;;;;;;27.23;15.18;;;0.50;78.80;;;;;;5087829;28;20028;-78
2020/12/27 08:38:32;;;;;;;26.90;15.93;;;0.60;79.10;;;;;;5086253;28;20119;-77
2020/12/27 08:41:22;;;;;;;26.45;15.63;;;0.60;78.70;;;;;;5074260;28;20097;-77
2020/12/27 08:44:06;;;;;;;27.85;15.45;;;0.70;79.10;;;;;;5075440;28;20774;-77
2020/12/27 08:46:40;;;;;;;30.60;15.90;;;0.70;77.80;;;;;;5088130;28;20028;-77
2020/12/27 08:49:29;;;;;;;28.30;14.57;;;0.80;78.60;;;;;;5096307;28;20389;-78
2020/12/27 08:52:12;;;;;;;25.23;15.40;;;0.80;78.90;;;;;;5096263;28;20025;-79
2020/12/27 08:54:38;;;;;;;26.80;15.15;;;0.90;78.10;;;;;;5095004;28;20024;-78
2020/12/27 08:57:07;;;;;;;31.13;16.02;;;0.90;78.60;;;;;;5096131;28;20374;-77
2020/12/27 08:59:33;;;;;;;27.02;15.80;;;1.00;78.60;;;;;;5096073;28;20044;-77
2020/12/27 09:02:09;;;;;;;27.77;16.95;;;1.00;78.70;;;;;;5094632;28;20063;-77
2020/12/27 09:04:35;;;;;;;27.65;16.02;;;1.10;78.30;;;;;;5094829;28;20115;-77
2020/12/27 09:07:02;;;;;;;26.83;15.20;;;1.10;78.20;;;;;;5096205;28;20052;-77
2020/12/27 09:09:28;;;;;;;26.98;15.25;;;1.20;78.90;;;;;;5095857;28;20416;-78
2020/12/27 09:11:54;;;;;;;25.63;15.70;;;1.20;78.00;;;;;;5094343;28;20046;-77
2020/12/27 09:14:34;;;;;;;24.83;15.48;;;1.20;78.00;;;;;;5095579;28;20028;-77
2020/12/27 09:17:03;;;;;;;25.30;14.88;;;1.30;77.90;;;;;;5095717;28;20362;-78
2020/12/27 09:19:32;;;;;;;28.73;15.30;;;1.30;78.20;;;;;;5095641;28;20024;-77
2020/12/27 09:22:00;;;;;;;26.83;15.85;;;1.30;77.70;;;;;;5094198;28;20381;-77
2020/12/27 09:24:26;;;;;;;32.92;18.08;;;1.40;77.80;;;;;;5095735;28;20016;-77
2020/12/27 09:26:52;;;;;;;27.80;15.95;;;1.40;77.10;;;;;;5095393;28;20069;-77
2020/12/27 09:29:19;;;;;;;26.13;16.10;;;1.40;77.50;;;;;;5095563;28;20036;-77
2020/12/27 09:31:45;;;;;;;25.63;16.08;;;1.40;75.20;;;;;;5095401;28;20020;-77
2020/12/27 09:34:11;;;;;;;21.10;13.10;;;1.40;75.60;;;;;;5095677;28;20035;-76
2020/12/27 09:36:38;;;;;;;25.70;14.70;;;1.50;77.10;;;;;;5091760;28;20489;-76
2020/12/27 09:39:05;;;;;;;23.83;14.50;;;1.60;77.20;;;;;;5086583;28;20027;-76
2020/12/27 09:41:40;;;;;;;21.45;14.05;;;1.60;77.00;;;;;;5095385;28;20036;-76
2020/12/27 09:44:06;;;;;;;24.13;14.85;;;1.60;76.60;;;;;;5094972;28;20035;-76
2020/12/27 09:47:04;;;;;;;21.10;12.50;;;1.70;75.40;;;;;;5095390;28;20012;-76
2020/12/27 09:49:32;;;;;;;20.48;12.43;;;1.70;76.00;;;;;;5050540;28;20035;-76
2020/12/27 09:52:27;;;;;;;22.23;13.20;;;1.70;76.60;;;;;;5094971;28;20027;-76
2020/12/27 09:54:52;;;;;;;25.00;13.35;;;1.80;76.30;;;;;;5077057;28;20039;-76
2020/12/27 09:57:23;;;;;;;21.15;12.80;;;1.80;75.20;;;;;;5095339;28;20021;-76
2020/12/27 09:59:51;;;;;;;20.65;12.88;;;1.80;74.70;;;;;;5094602;28;20016;-76
2020/12/27 10:02:17;;;;;;;19.88;12.43;;;1.80;74.80;;;;;;5094780;28;20031;-76
2020/12/27 10:04:44;;;;;;;20.20;12.10;;;1.80;74.60;;;;;;5094537;28;20016;-76
2020/12/27 10:07:10;;;;;;;23.08;12.00;;;1.80;74.50;;;;;;5077346;28;20025;-76
2020/12/27 10:09:36;;;;;;;18.83;11.00;;;1.90;75.30;;;;;;5075910;28;20033;-76
2020/12/27 10:12:03;;;;;;;16.73;10.88;;;1.90;74.40;;;;;;5094446;28;20024;-76
2020/12/27 10:14:29;;;;;;;16.73;11.10;;;1.90;73.50;;;;;;5094846;28;20016;-76
2020/12/27 10:17:00;;;;;;;18.05;11.02;;;1.90;73.90;;;;;;5094513;28;20020;-76
2020/12/27 10:19:28;;;;;;;;;;;2.00;73.90;;;;;;5095151;28;20070;-77
2020/12/27 10:24:35;;;;;;;20.77;11.73;;;2.00;72.70;;;;;;5179434;22;20048;-75
2020/12/27 10:27:03;;;;;;;17.27;10.93;;;2.00;72.40;;;;;;5094661;28;20024;-75
2020/12/27 10:29:29;;;;;;;15.38;9.45;;;2.10;73.30;;;;;;5094297;28;20015;-74
2020/12/27 10:31:57;;;;;;;14.93;9.75;;;2.20;73.20;;;;;;5075653;28;20103;-75
2020/12/27 10:34:23;;;;;;;15.30;9.98;;;2.20;72.60;;;;;;5094161;28;20027;-76
2020/12/27 10:36:51;;;;;;;18.80;11.10;;;2.30;73.10;;;;;;5094438;28;20020;-75
2020/12/27 10:39:17;;;;;;;15.88;10.73;;;2.30;73.00;;;;;;5076281;28;20377;-75
2020/12/27 10:41:44;;;;;;;17.63;10.45;;;2.40;73.20;;;;;;5063868;28;20492;-75
2020/12/27 10:44:10;;;;;;;13.63;9.07;;;2.40;73.00;;;;;;5073859;28;20028;-75
2020/12/27 10:46:36;;;;;;;12.15;7.93;;;2.50;73.40;;;;;;5074132;28;20043;-74
2020/12/27 10:49:01;;;;;;;11.68;7.90;;;2.50;72.40;;;;;;5074238;28;20110;-75
2020/12/27 10:51:37;;;;;;;16.92;9.30;;;2.60;72.30;;;;;;5073927;28;20025;-75
2020/12/27 10:54:04;;;;;;;25.58;13.30;;;2.60;72.70;;;;;;5055445;28;20048;-75
2020/12/27 10:56:31;;;;;;;31.63;14.57;;;2.60;72.30;;;;;;5073683;28;20025;-77
2020/12/27 10:58:57;;;;;;;27.17;13.02;;;2.70;71.30;;;;;;5077656;28;20031;-77
2020/12/27 11:01:23;;;;;;;23.38;13.63;;;2.70;71.90;;;;;;5075760;28;20097;-78
2020/12/27 11:03:49;;;;;;;20.80;10.88;;;2.70;70.80;;;;;;5094050;28;20358;-78
2020/12/27 11:06:15;;;;;;;25.58;13.55;;;2.70;71.30;;;;;;5094030;28;20020;-78
2020/12/27 11:08:41;;;;;;;23.95;12.98;;;2.70;70.80;;;;;;5075754;28;20020;-78
2020/12/27 11:11:07;;;;;;;32.70;15.77;;;2.70;71.20;;;;;;5075732;28;20073;-78
2020/12/27 11:13:33;;;;;;;35.25;17.15;;;2.70;70.50;;;;;;5094025;28;20024;-78
2020/12/27 11:15:59;;;;;;;53.28;23.45;;;2.60;70.70;;;;;;5075900;28;20415;-78
2020/12/27 11:18:24;;;;;;;65.40;29.08;;;2.60;70.60;;;;;;5075886;28;20441;-78
2020/12/27 11:20:50;;;;;;;69.15;28.15;;;2.60;71.40;;;;;;5094145;28;20391;-78
2020/12/27 11:23:16;;;;;;;75.03;33.53;;;2.60;71.50;;;;;;5093602;28;20032;-78
2020/12/27 11:25:41;;;;;;;101.47;42.28;;;2.50;71.30;;;;;;5094159;28;20024;-78
2020/12/27 11:28:07;;;;;;;106.65;45.13;;;2.50;70.90;;;;;;5094066;28;20524;-78
2020/12/27 11:30:33;;;;;;;121.70;53.80;;;2.40;71.50;;;;;;5093956;28;20028;-78
2020/12/27 11:32:58;;;;;;;130.63;59.60;;;2.40;71.50;;;;;;5093843;28;20028;-78
2020/12/27 11:35:24;;;;;;;162.18;69.53;;;2.40;72.30;;;;;;5093646;28;20024;-78
2020/12/27 11:37:51;;;;;;;171.13;72.60;;;2.30;71.50;;;;;;5093829;28;20552;-78
2020/12/27 11:40:17;;;;;;;157.05;70.95;;;2.30;72.40;;;;;;5075664;28;20035;-78
2020/12/27 11:42:42;;;;;;;137.50;58.33;;;2.30;72.60;;;;;;5093564;28;20020;-78
2020/12/27 11:45:08;;;;;;;134.73;54.92;;;2.30;72.70;;;;;;5094345;28;20428;-78
2020/12/27 11:47:36;;;;;;;121.63;51.60;;;2.30;72.30;;;;;;5093704;28;20089;-78
2020/12/27 11:50:02;;;;;;;113.00;48.67;;;2.30;72.70;;;;;;5075669;28;20051;-79
2020/12/27 11:52:27;;;;;;;93.22;41.95;;;2.30;72.80;;;;;;5093619;28;20081;-79
2020/12/27 11:54:53;;;;;;;81.90;38.33;;;2.30;72.70;;;;;;5075594;28;20119;-78
2020/12/27 11:57:19;;;;;;;76.40;35.80;;;2.40;72.80;;;;;;5075436;28;20331;-78
2020/12/27 11:59:45;;;;;;;70.47;34.50;;;2.30;72.60;;;;;;5093513;28;20021;-78
2020/12/27 12:02:11;;;;;;;63.70;31.58;;;2.40;72.60;;;;;;5093604;28;20039;-78
2020/12/27 12:04:37;;;;;;;64.28;31.75;;;2.40;72.70;;;;;;5094598;28;20024;-78
2020/12/27 12:07:03;;;;;;;60.40;31.58;;;2.40;73.10;;;;;;5079459;28;20477;-79
2020/12/27 12:09:29;;;;;;;64.68;31.70;;;2.40;73.30;;;;;;5097873;28;20461;-79
2020/12/27 12:11:54;;;;;;;63.17;31.63;;;2.30;72.90;;;;;;5097495;28;20023;-79
2020/12/27 12:14:20;;;;;;;55.20;30.88;;;2.40;73.60;;;;;;5097432;28;20377;-79
2020/12/27 12:16:46;;;;;;;49.67;26.35;;;2.40;73.50;;;;;;5097350;28;20062;-79
2020/12/27 12:19:11;;;;;;;47.20;24.42;;;2.40;73.40;;;;;;5079248;28;20508;-79
2020/12/27 12:21:37;;;;;;;40.63;23.88;;;2.40;73.40;;;;;;5097233;28;20054;-79
2020/12/27 12:24:03;;;;;;;39.08;21.20;;;2.30;73.00;;;;;;5078824;28;20048;-78
2020/12/27 12:26:31;;;;;;;38.90;21.38;;;2.30;73.10;;;;;;5097528;28;20027;-79
2020/12/27 12:28:58;;;;;;;31.92;21.08;;;2.30;72.70;;;;;;5078852;28;20523;-79
2020/12/27 12:31:25;;;;;;;33.88;20.38;;;2.30;72.30;;;;;;5097328;28;20020;-79
2020/12/27 12:33:51;;;;;;;32.67;18.45;;;2.30;72.70;;;;;;5096890;28;20024;-79
2020/12/27 12:36:18;;;;;;;32.22;19.33;;;2.30;72.50;;;;;;5078832;28;20365;-79
2020/12/27 12:38:45;;;;;;;27.30;15.57;;;2.30;72.10;;;;;;5078758;28;20031;-78
2020/12/27 12:41:11;;;;;;;19.00;12.68;;;2.30;71.70;;;;;;5096908;28;20028;-79